sensor_id;sensor_type;location;lat;lon;timestamp;P1;durP1;ratioP1;P2;durP2;ratioP2
6077;SDS011;3067;49.470;10.394;2022-07-03T00:01:18;5.23;;;1.90;;
6077;SDS011;3067;49.470;10.394;2022-07-03T00:03:45;2.07;;;1.97;;
6077;SDS011;3067;49.470;10.394;2022-07-03T00:06:12;2.13;;;2.03;;
6077;SDS011;3067;49.470;10.394;2022-07-03T00:08:40;2.60;;;1.83;;
6077;SDS011;3067;49.470;10.394;2022-07-03T00:11:07;3.00;;;2.17;;
6077;SDS011;3067;49.470;10.394;2022-07-03T00:13:36;1.90;;;1.90;;
6077;SDS011;3067;49.470;10.394;2022-07-03T00:16:04;2.30;;;2.10;;
6077;SDS011;3067;49.470;10.394;2022-07-03T00:18:32;2.30;;;2.20;;
6077;SDS011;3067;49.470;10.394;2022-07-03T00:21:00;2.50;;;2.30;;
6077;SDS011;3067;49.470;10.394;2022-07-03T00:23:29;2.47;;;2.37;;
6077;SDS011;3067;49.470;10.394;2022-07-03T00:25:57;2.60;;;2.50;;
6077;SDS011;3067;49.470;10.394;2022-07-03T00:28:26;4.87;;;3.10;;
6077;SDS011;3067;49.470;10.394;2022-07-03T00:30:55;2.80;;;2.70;;
6077;SDS011;3067;49.470;10.394;2022-07-03T00:33:25;2.90;;;2.80;;
6077;SDS011;3067;49.470;10.394;2022-07-03T00:35:55;6.13;;;3.20;;
6077;SDS011;3067;49.470;10.394;2022-07-03T00:38:22;3.20;;;3.03;;
6077;SDS011;3067;49.470;10.394;2022-07-03T00:40:49;3.37;;;3.17;;
6077;SDS011;3067;49.470;10.394;2022-07-03T00:43:17;8.80;;;2.70;;
6077;SDS011;3067;49.470;10.394;2022-07-03T00:45:45;2.97;;;2.77;;
6077;SDS011;3067;49.470;10.394;2022-07-03T00:48:13;3.23;;;2.70;;
6077;SDS011;3067;49.470;10.394;2022-07-03T00:50:44;5.40;;;3.43;;
6077;SDS011;3067;49.470;10.394;2022-07-03T00:53:13;3.07;;;2.87;;
6077;SDS011;3067;49.470;10.394;2022-07-03T00:55:45;2.67;;;2.57;;
6077;SDS011;3067;49.470;10.394;2022-07-03T00:58:14;2.80;;;2.70;;
6077;SDS011;3067;49.470;10.394;2022-07-03T01:00:43;3.13;;;3.03;;
6077;SDS011;3067;49.470;10.394;2022-07-03T01:03:13;3.63;;;3.30;;
6077;SDS011;3067;49.470;10.394;2022-07-03T01:05:42;4.10;;;3.13;;
6077;SDS011;3067;49.470;10.394;2022-07-03T01:08:11;2.90;;;2.80;;
6077;SDS011;3067;49.470;10.394;2022-07-03T01:10:43;2.93;;;2.80;;
6077;SDS011;3067;49.470;10.394;2022-07-03T01:13:13;2.90;;;2.77;;
6077;SDS011;3067;49.470;10.394;2022-07-03T01:15:41;3.00;;;2.90;;
6077;SDS011;3067;49.470;10.394;2022-07-03T01:18:17;3.23;;;3.03;;
6077;SDS011;3067;49.470;10.394;2022-07-03T01:20:51;3.37;;;3.17;;
6077;SDS011;3067;49.470;10.394;2022-07-03T01:23:20;3.33;;;3.00;;
6077;SDS011;3067;49.470;10.394;2022-07-03T01:25:53;3.50;;;3.20;;
6077;SDS011;3067;49.470;10.394;2022-07-03T01:28:21;4.13;;;3.67;;
6077;SDS011;3067;49.470;10.394;2022-07-03T01:30:50;10.47;;;3.60;;
6077;SDS011;3067;49.470;10.394;2022-07-03T01:33:18;3.70;;;3.50;;
6077;SDS011;3067;49.470;10.394;2022-07-03T01:35:47;3.77;;;3.57;;
6077;SDS011;3067;49.470;10.394;2022-07-03T01:38:18;4.60;;;3.50;;
6077;SDS011;3067;49.470;10.394;2022-07-03T01:40:48;3.50;;;3.40;;
6077;SDS011;3067;49.470;10.394;2022-07-03T01:43:17;3.60;;;3.50;;
6077;SDS011;3067;49.470;10.394;2022-07-03T01:45:47;3.87;;;3.57;;
6077;SDS011;3067;49.470;10.394;2022-07-03T01:48:14;3.90;;;3.70;;
6077;SDS011;3067;49.470;10.394;2022-07-03T01:50:42;3.73;;;3.53;;
6077;SDS011;3067;49.470;10.394;2022-07-03T01:53:10;8.80;;;3.87;;
6077;SDS011;3067;49.470;10.394;2022-07-03T01:55:38;3.80;;;3.60;;
6077;SDS011;3067;49.470;10.394;2022-07-03T01:58:05;3.60;;;3.40;;
6077;SDS011;3067;49.470;10.394;2022-07-03T02:00:38;4.13;;;3.93;;
6077;SDS011;3067;49.470;10.394;2022-07-03T02:03:07;4.50;;;4.20;;
6077;SDS011;3067;49.470;10.394;2022-07-03T02:05:37;4.60;;;4.10;;
6077;SDS011;3067;49.470;10.394;2022-07-03T02:08:12;7.50;;;4.57;;
6077;SDS011;3067;49.470;10.394;2022-07-03T02:10:44;4.00;;;3.80;;
6077;SDS011;3067;49.470;10.394;2022-07-03T02:13:15;6.93;;;5.43;;
6077;SDS011;3067;49.470;10.394;2022-07-03T02:15:44;6.57;;;5.10;;
6077;SDS011;3067;49.470;10.394;2022-07-03T02:18:16;8.80;;;4.90;;
6077;SDS011;3067;49.470;10.394;2022-07-03T02:20:54;7.57;;;4.43;;
6077;SDS011;3067;49.470;10.394;2022-07-03T02:23:23;4.57;;;4.27;;
6077;SDS011;3067;49.470;10.394;2022-07-03T02:25:53;5.80;;;4.20;;
6077;SDS011;3067;49.470;10.394;2022-07-03T02:28:22;4.83;;;4.43;;
6077;SDS011;3067;49.470;10.394;2022-07-03T02:30:55;4.50;;;4.20;;
6077;SDS011;3067;49.470;10.394;2022-07-03T02:33:24;4.87;;;4.47;;
6077;SDS011;3067;49.470;10.394;2022-07-03T02:35:53;5.23;;;4.83;;
6077;SDS011;3067;49.470;10.394;2022-07-03T02:38:21;4.70;;;4.30;;
6077;SDS011;3067;49.470;10.394;2022-07-03T02:40:50;5.13;;;4.30;;
6077;SDS011;3067;49.470;10.394;2022-07-03T02:43:21;4.57;;;4.27;;
6077;SDS011;3067;49.470;10.394;2022-07-03T02:45:54;4.73;;;4.03;;
6077;SDS011;3067;49.470;10.394;2022-07-03T02:48:27;4.40;;;4.10;;
6077;SDS011;3067;49.470;10.394;2022-07-03T02:50:55;5.30;;;4.07;;
6077;SDS011;3067;49.470;10.394;2022-07-03T02:53:26;4.63;;;4.33;;
6077;SDS011;3067;49.470;10.394;2022-07-03T02:55:57;4.50;;;4.13;;
6077;SDS011;3067;49.470;10.394;2022-07-03T02:58:27;4.00;;;3.80;;
6077;SDS011;3067;49.470;10.394;2022-07-03T03:00:59;4.80;;;4.27;;
6077;SDS011;3067;49.470;10.394;2022-07-03T03:03:31;4.40;;;4.20;;
6077;SDS011;3067;49.470;10.394;2022-07-03T03:06:00;4.60;;;4.27;;
6077;SDS011;3067;49.470;10.394;2022-07-03T03:08:30;4.90;;;4.60;;
6077;SDS011;3067;49.470;10.394;2022-07-03T03:11:01;19.50;;;4.50;;
6077;SDS011;3067;49.470;10.394;2022-07-03T03:13:30;4.47;;;4.17;;
6077;SDS011;3067;49.470;10.394;2022-07-03T03:16:02;4.20;;;4.00;;
6077;SDS011;3067;49.470;10.394;2022-07-03T03:18:33;8.93;;;4.37;;
6077;SDS011;3067;49.470;10.394;2022-07-03T03:21:01;4.40;;;4.20;;
6077;SDS011;3067;49.470;10.394;2022-07-03T03:23:42;6.43;;;4.10;;
6077;SDS011;3067;49.470;10.394;2022-07-03T03:26:10;4.97;;;4.67;;
6077;SDS011;3067;49.470;10.394;2022-07-03T03:28:38;5.00;;;4.70;;
6077;SDS011;3067;49.470;10.394;2022-07-03T03:31:05;4.50;;;4.30;;
6077;SDS011;3067;49.470;10.394;2022-07-03T03:33:36;4.60;;;4.20;;
6077;SDS011;3067;49.470;10.394;2022-07-03T03:36:07;5.10;;;4.70;;
6077;SDS011;3067;49.470;10.394;2022-07-03T03:38:34;4.90;;;4.40;;
6077;SDS011;3067;49.470;10.394;2022-07-03T03:41:02;4.93;;;4.60;;
6077;SDS011;3067;49.470;10.394;2022-07-03T03:43:29;5.47;;;5.07;;
6077;SDS011;3067;49.470;10.394;2022-07-03T03:45:56;5.13;;;4.60;;
6077;SDS011;3067;49.470;10.394;2022-07-03T03:48:24;5.00;;;4.60;;
6077;SDS011;3067;49.470;10.394;2022-07-03T03:50:53;4.80;;;4.50;;
6077;SDS011;3067;49.470;10.394;2022-07-03T03:53:20;6.57;;;5.20;;
6077;SDS011;3067;49.470;10.394;2022-07-03T03:55:54;5.57;;;5.07;;
6077;SDS011;3067;49.470;10.394;2022-07-03T03:58:25;5.13;;;4.73;;
6077;SDS011;3067;49.470;10.394;2022-07-03T04:00:52;5.40;;;5.10;;
6077;SDS011;3067;49.470;10.394;2022-07-03T04:03:19;4.77;;;4.37;;
6077;SDS011;3067;49.470;10.394;2022-07-03T04:05:47;5.77;;;4.53;;
6077;SDS011;3067;49.470;10.394;2022-07-03T04:08:15;4.73;;;4.47;;
6077;SDS011;3067;49.470;10.394;2022-07-03T04:10:43;5.70;;;5.20;;
6077;SDS011;3067;49.470;10.394;2022-07-03T04:13:10;6.77;;;4.73;;
6077;SDS011;3067;49.470;10.394;2022-07-03T04:15:37;6.20;;;5.10;;
6077;SDS011;3067;49.470;10.394;2022-07-03T04:18:05;4.30;;;3.90;;
6077;SDS011;3067;49.470;10.394;2022-07-03T04:20:32;4.90;;;4.60;;
6077;SDS011;3067;49.470;10.394;2022-07-03T04:22:59;5.30;;;4.80;;
6077;SDS011;3067;49.470;10.394;2022-07-03T04:25:29;4.87;;;4.53;;
6077;SDS011;3067;49.470;10.394;2022-07-03T04:27:56;5.33;;;4.90;;
6077;SDS011;3067;49.470;10.394;2022-07-03T04:30:24;8.30;;;4.70;;
6077;SDS011;3067;49.470;10.394;2022-07-03T04:32:51;5.37;;;4.87;;
6077;SDS011;3067;49.470;10.394;2022-07-03T04:35:18;5.33;;;4.70;;
6077;SDS011;3067;49.470;10.394;2022-07-03T04:37:46;5.50;;;5.10;;
6077;SDS011;3067;49.470;10.394;2022-07-03T04:40:13;9.67;;;5.17;;
6077;SDS011;3067;49.470;10.394;2022-07-03T04:42:42;6.70;;;4.70;;
6077;SDS011;3067;49.470;10.394;2022-07-03T04:45:09;5.30;;;4.80;;
6077;SDS011;3067;49.470;10.394;2022-07-03T04:47:37;4.90;;;4.50;;
6077;SDS011;3067;49.470;10.394;2022-07-03T04:50:04;5.67;;;5.17;;
6077;SDS011;3067;49.470;10.394;2022-07-03T04:52:32;5.80;;;5.30;;
6077;SDS011;3067;49.470;10.394;2022-07-03T04:54:59;5.47;;;5.03;;
6077;SDS011;3067;49.470;10.394;2022-07-03T04:57:27;6.10;;;4.50;;
6077;SDS011;3067;49.470;10.394;2022-07-03T04:59:56;7.60;;;4.93;;
6077;SDS011;3067;49.470;10.394;2022-07-03T05:02:23;9.60;;;4.80;;
6077;SDS011;3067;49.470;10.394;2022-07-03T05:04:50;9.50;;;4.97;;
6077;SDS011;3067;49.470;10.394;2022-07-03T05:07:17;5.83;;;4.97;;
6077;SDS011;3067;49.470;10.394;2022-07-03T05:09:45;5.63;;;4.97;;
6077;SDS011;3067;49.470;10.394;2022-07-03T05:12:12;5.53;;;5.03;;
6077;SDS011;3067;49.470;10.394;2022-07-03T05:14:39;5.50;;;5.00;;
6077;SDS011;3067;49.470;10.394;2022-07-03T05:17:08;5.20;;;4.90;;
6077;SDS011;3067;49.470;10.394;2022-07-03T05:19:36;5.13;;;4.80;;
6077;SDS011;3067;49.470;10.394;2022-07-03T05:22:03;9.17;;;5.10;;
6077;SDS011;3067;49.470;10.394;2022-07-03T05:24:31;5.47;;;5.03;;
6077;SDS011;3067;49.470;10.394;2022-07-03T05:26:58;5.73;;;5.10;;
6077;SDS011;3067;49.470;10.394;2022-07-03T05:29:25;6.17;;;4.73;;
6077;SDS011;3067;49.470;10.394;2022-07-03T05:31:53;4.73;;;4.50;;
6077;SDS011;3067;49.470;10.394;2022-07-03T05:34:21;4.40;;;4.20;;
6077;SDS011;3067;49.470;10.394;2022-07-03T05:36:49;4.90;;;4.50;;
6077;SDS011;3067;49.470;10.394;2022-07-03T05:39:17;4.30;;;4.00;;
6077;SDS011;3067;49.470;10.394;2022-07-03T05:41:59;4.60;;;4.30;;
6077;SDS011;3067;49.470;10.394;2022-07-03T05:44:27;4.40;;;4.20;;
6077;SDS011;3067;49.470;10.394;2022-07-03T05:46:54;4.17;;;3.87;;
6077;SDS011;3067;49.470;10.394;2022-07-03T05:49:23;4.07;;;3.87;;
6077;SDS011;3067;49.470;10.394;2022-07-03T05:51:50;4.50;;;4.10;;
6077;SDS011;3067;49.470;10.394;2022-07-03T05:54:17;3.83;;;3.53;;
6077;SDS011;3067;49.470;10.394;2022-07-03T05:56:45;3.80;;;3.60;;
6077;SDS011;3067;49.470;10.394;2022-07-03T05:59:12;4.33;;;3.87;;
6077;SDS011;3067;49.470;10.394;2022-07-03T06:01:39;6.60;;;3.60;;
6077;SDS011;3067;49.470;10.394;2022-07-03T06:04:07;7.23;;;3.43;;
6077;SDS011;3067;49.470;10.394;2022-07-03T06:06:35;3.63;;;3.40;;
6077;SDS011;3067;49.470;10.394;2022-07-03T06:09:03;4.50;;;3.37;;
6077;SDS011;3067;49.470;10.394;2022-07-03T06:11:30;3.43;;;3.23;;
6077;SDS011;3067;49.470;10.394;2022-07-03T06:13:57;3.20;;;3.10;;
6077;SDS011;3067;49.470;10.394;2022-07-03T06:16:25;3.40;;;3.10;;
6077;SDS011;3067;49.470;10.394;2022-07-03T06:18:52;3.50;;;3.30;;
6077;SDS011;3067;49.470;10.394;2022-07-03T06:21:19;9.57;;;3.63;;
6077;SDS011;3067;49.470;10.394;2022-07-03T06:23:48;3.80;;;3.47;;
6077;SDS011;3067;49.470;10.394;2022-07-03T06:26:15;4.60;;;3.30;;
6077;SDS011;3067;49.470;10.394;2022-07-03T06:28:43;3.50;;;3.30;;
6077;SDS011;3067;49.470;10.394;2022-07-03T06:31:10;2.90;;;2.80;;
6077;SDS011;3067;49.470;10.394;2022-07-03T06:33:38;3.13;;;2.80;;
6077;SDS011;3067;49.470;10.394;2022-07-03T06:36:05;2.70;;;2.60;;
6077;SDS011;3067;49.470;10.394;2022-07-03T06:38:33;2.63;;;2.53;;
6077;SDS011;3067;49.470;10.394;2022-07-03T06:41:01;3.03;;;2.17;;
6077;SDS011;3067;49.470;10.394;2022-07-03T06:43:29;2.60;;;2.30;;
6077;SDS011;3067;49.470;10.394;2022-07-03T06:45:56;2.30;;;2.20;;
6077;SDS011;3067;49.470;10.394;2022-07-03T06:48:23;2.90;;;2.00;;
6077;SDS011;3067;49.470;10.394;2022-07-03T06:50:51;2.17;;;2.07;;
6077;SDS011;3067;49.470;10.394;2022-07-03T06:53:18;2.30;;;1.87;;
6077;SDS011;3067;49.470;10.394;2022-07-03T06:55:45;2.00;;;1.90;;
6077;SDS011;3067;49.470;10.394;2022-07-03T06:58:14;2.80;;;2.00;;
6077;SDS011;3067;49.470;10.394;2022-07-03T07:00:42;1.90;;;1.80;;
6077;SDS011;3067;49.470;10.394;2022-07-03T07:03:09;1.87;;;1.80;;
6077;SDS011;3067;49.470;10.394;2022-07-03T07:05:36;1.60;;;1.60;;
6077;SDS011;3067;49.470;10.394;2022-07-03T07:08:04;2.30;;;1.90;;
6077;SDS011;3067;49.470;10.394;2022-07-03T07:10:31;1.90;;;1.80;;
6077;SDS011;3067;49.470;10.394;2022-07-03T07:12:58;2.00;;;1.90;;
6077;SDS011;3067;49.470;10.394;2022-07-03T07:15:27;1.57;;;1.47;;
6077;SDS011;3067;49.470;10.394;2022-07-03T07:17:54;1.70;;;1.60;;
6077;SDS011;3067;49.470;10.394;2022-07-03T07:20:22;1.77;;;1.60;;
6077;SDS011;3067;49.470;10.394;2022-07-03T07:22:49;4.93;;;1.50;;
6077;SDS011;3067;49.470;10.394;2022-07-03T07:25:16;1.60;;;1.50;;
6077;SDS011;3067;49.470;10.394;2022-07-03T07:27:45;1.67;;;1.57;;
6077;SDS011;3067;49.470;10.394;2022-07-03T07:30:13;2.87;;;1.60;;
6077;SDS011;3067;49.470;10.394;2022-07-03T07:32:42;1.70;;;1.60;;
6077;SDS011;3067;49.470;10.394;2022-07-03T07:35:09;1.87;;;1.50;;
6077;SDS011;3067;49.470;10.394;2022-07-03T07:37:36;1.57;;;1.33;;
6077;SDS011;3067;49.470;10.394;2022-07-03T07:40:04;1.70;;;1.40;;
6077;SDS011;3067;49.470;10.394;2022-07-03T07:42:31;2.33;;;1.37;;
6077;SDS011;3067;49.470;10.394;2022-07-03T07:44:59;3.63;;;1.20;;
6077;SDS011;3067;49.470;10.394;2022-07-03T07:47:26;1.63;;;1.40;;
6077;SDS011;3067;49.470;10.394;2022-07-03T07:49:55;1.30;;;1.27;;
6077;SDS011;3067;49.470;10.394;2022-07-03T07:52:22;5.13;;;1.50;;
6077;SDS011;3067;49.470;10.394;2022-07-03T07:54:50;4.57;;;1.47;;
6077;SDS011;3067;49.470;10.394;2022-07-03T07:57:17;1.30;;;1.20;;
6077;SDS011;3067;49.470;10.394;2022-07-03T07:59:44;1.13;;;1.13;;
6077;SDS011;3067;49.470;10.394;2022-07-03T08:02:12;2.67;;;1.20;;
6077;SDS011;3067;49.470;10.394;2022-07-03T08:04:58;1.10;;;1.10;;
6077;SDS011;3067;49.470;10.394;2022-07-03T08:07:43;1.77;;;1.10;;
6077;SDS011;3067;49.470;10.394;2022-07-03T08:10:11;1.00;;;1.00;;
6077;SDS011;3067;49.470;10.394;2022-07-03T08:12:38;2.67;;;1.23;;
6077;SDS011;3067;49.470;10.394;2022-07-03T08:15:05;2.63;;;1.20;;
6077;SDS011;3067;49.470;10.394;2022-07-03T08:17:33;6.90;;;1.43;;
6077;SDS011;3067;49.470;10.394;2022-07-03T08:20:01;1.53;;;1.07;;
6077;SDS011;3067;49.470;10.394;2022-07-03T08:22:29;0.93;;;0.93;;
6077;SDS011;3067;49.470;10.394;2022-07-03T08:24:56;1.17;;;1.07;;
6077;SDS011;3067;49.470;10.394;2022-07-03T08:27:23;0.80;;;0.80;;
6077;SDS011;3067;49.470;10.394;2022-07-03T08:29:51;0.90;;;0.90;;
6077;SDS011;3067;49.470;10.394;2022-07-03T08:32:18;0.97;;;0.97;;
6077;SDS011;3067;49.470;10.394;2022-07-03T08:34:45;2.30;;;1.40;;
6077;SDS011;3067;49.470;10.394;2022-07-03T08:37:14;4.70;;;1.00;;
6077;SDS011;3067;49.470;10.394;2022-07-03T08:39:41;2.30;;;0.90;;
6077;SDS011;3067;49.470;10.394;2022-07-03T08:42:09;0.90;;;0.90;;
6077;SDS011;3067;49.470;10.394;2022-07-03T08:44:38;1.67;;;0.90;;
6077;SDS011;3067;49.470;10.394;2022-07-03T08:47:07;1.90;;;0.90;;
6077;SDS011;3067;49.470;10.394;2022-07-03T08:49:35;2.70;;;0.80;;
6077;SDS011;3067;49.470;10.394;2022-07-03T08:52:03;2.20;;;1.07;;
6077;SDS011;3067;49.470;10.394;2022-07-03T08:54:33;1.00;;;0.90;;
6077;SDS011;3067;49.470;10.394;2022-07-03T08:57:01;1.47;;;1.00;;
6077;SDS011;3067;49.470;10.394;2022-07-03T08:59:30;1.10;;;1.10;;
6077;SDS011;3067;49.470;10.394;2022-07-03T09:01:58;1.47;;;1.10;;
6077;SDS011;3067;49.470;10.394;2022-07-03T09:04:26;2.80;;;0.93;;
6077;SDS011;3067;49.470;10.394;2022-07-03T09:06:54;2.40;;;1.00;;
6077;SDS011;3067;49.470;10.394;2022-07-03T09:09:22;0.90;;;0.90;;
6077;SDS011;3067;49.470;10.394;2022-07-03T09:11:51;1.10;;;1.10;;
6077;SDS011;3067;49.470;10.394;2022-07-03T09:14:18;0.90;;;0.90;;
6077;SDS011;3067;49.470;10.394;2022-07-03T09:16:45;1.00;;;1.00;;
6077;SDS011;3067;49.470;10.394;2022-07-03T09:19:13;1.33;;;0.90;;
6077;SDS011;3067;49.470;10.394;2022-07-03T09:21:41;1.10;;;1.00;;
6077;SDS011;3067;49.470;10.394;2022-07-03T09:24:09;0.93;;;0.93;;
6077;SDS011;3067;49.470;10.394;2022-07-03T09:26:37;1.53;;;0.90;;
6077;SDS011;3067;49.470;10.394;2022-07-03T09:29:17;1.00;;;0.90;;
6077;SDS011;3067;49.470;10.394;2022-07-03T09:31:45;0.90;;;0.90;;
6077;SDS011;3067;49.470;10.394;2022-07-03T09:34:20;2.07;;;0.90;;
6077;SDS011;3067;49.470;10.394;2022-07-03T09:36:48;2.10;;;0.87;;
6077;SDS011;3067;49.470;10.394;2022-07-03T09:39:17;1.53;;;0.93;;
6077;SDS011;3067;49.470;10.394;2022-07-03T09:41:54;0.93;;;0.83;;
6077;SDS011;3067;49.470;10.394;2022-07-03T09:44:33;2.03;;;1.00;;
6077;SDS011;3067;49.470;10.394;2022-07-03T09:47:07;1.10;;;1.00;;
6077;SDS011;3067;49.470;10.394;2022-07-03T09:49:44;0.80;;;0.80;;
6077;SDS011;3067;49.470;10.394;2022-07-03T09:52:17;0.80;;;0.80;;
6077;SDS011;3067;49.470;10.394;2022-07-03T09:54:52;1.97;;;1.00;;
6077;SDS011;3067;49.470;10.394;2022-07-03T09:57:19;1.23;;;0.90;;
6077;SDS011;3067;49.470;10.394;2022-07-03T09:59:49;1.00;;;1.00;;
6077;SDS011;3067;49.470;10.394;2022-07-03T10:02:16;0.80;;;0.80;;
6077;SDS011;3067;49.470;10.394;2022-07-03T10:04:44;0.90;;;0.90;;
6077;SDS011;3067;49.470;10.394;2022-07-03T10:07:11;1.87;;;0.80;;
6077;SDS011;3067;49.470;10.394;2022-07-03T10:09:38;0.80;;;0.80;;
6077;SDS011;3067;49.470;10.394;2022-07-03T10:12:06;4.10;;;0.77;;
6077;SDS011;3067;49.470;10.394;2022-07-03T10:14:33;2.40;;;0.90;;
6077;SDS011;3067;49.470;10.394;2022-07-03T10:17:02;5.27;;;0.90;;
6077;SDS011;3067;49.470;10.394;2022-07-03T10:19:30;0.83;;;0.83;;
6077;SDS011;3067;49.470;10.394;2022-07-03T10:21:58;1.40;;;1.00;;
6077;SDS011;3067;49.470;10.394;2022-07-03T10:24:28;0.80;;;0.80;;
6077;SDS011;3067;49.470;10.394;2022-07-03T10:26:56;0.80;;;0.80;;
6077;SDS011;3067;49.470;10.394;2022-07-03T10:29:24;0.83;;;0.83;;
6077;SDS011;3067;49.470;10.394;2022-07-03T10:31:52;1.27;;;0.80;;
6077;SDS011;3067;49.470;10.394;2022-07-03T10:34:22;0.80;;;0.80;;
6077;SDS011;3067;49.470;10.394;2022-07-03T10:36:51;0.80;;;0.80;;
6077;SDS011;3067;49.470;10.394;2022-07-03T10:39:22;0.80;;;0.80;;
6077;SDS011;3067;49.470;10.394;2022-07-03T10:41:50;0.80;;;0.80;;
6077;SDS011;3067;49.470;10.394;2022-07-03T10:44:49;0.80;;;0.80;;
6077;SDS011;3067;49.470;10.394;2022-07-03T10:50:05;0.70;;;0.70;;
6077;SDS011;3067;49.470;10.394;2022-07-03T10:52:33;10.10;;;0.90;;
6077;SDS011;3067;49.470;10.394;2022-07-03T10:55:01;2.80;;;0.70;;
6077;SDS011;3067;49.470;10.394;2022-07-03T10:57:31;5.13;;;0.63;;
6077;SDS011;3067;49.470;10.394;2022-07-03T11:00:12;0.70;;;0.70;;
6077;SDS011;3067;49.470;10.394;2022-07-03T11:02:39;0.97;;;0.80;;
6077;SDS011;3067;49.470;10.394;2022-07-03T11:10:45;0.80;;;0.80;;
6077;SDS011;3067;49.470;10.394;2022-07-03T11:13:33;0.80;;;0.70;;
6077;SDS011;3067;49.470;10.394;2022-07-03T11:16:00;0.70;;;0.70;;
6077;SDS011;3067;49.470;10.394;2022-07-03T11:18:31;1.13;;;0.60;;
6077;SDS011;3067;49.470;10.394;2022-07-03T11:24:07;0.67;;;0.67;;
6077;SDS011;3067;49.470;10.394;2022-07-03T11:26:38;0.70;;;0.70;;
6077;SDS011;3067;49.470;10.394;2022-07-03T11:29:06;1.97;;;0.70;;
6077;SDS011;3067;49.470;10.394;2022-07-03T11:31:33;2.10;;;0.80;;
6077;SDS011;3067;49.470;10.394;2022-07-03T11:34:00;0.60;;;0.60;;
6077;SDS011;3067;49.470;10.394;2022-07-03T11:36:28;1.37;;;0.70;;
6077;SDS011;3067;49.470;10.394;2022-07-03T11:39:03;0.80;;;0.80;;
6077;SDS011;3067;49.470;10.394;2022-07-03T11:41:42;1.27;;;0.70;;
6077;SDS011;3067;49.470;10.394;2022-07-03T11:44:15;0.80;;;0.70;;
6077;SDS011;3067;49.470;10.394;2022-07-03T11:46:45;0.83;;;0.77;;
6077;SDS011;3067;49.470;10.394;2022-07-03T11:49:14;0.70;;;0.70;;
6077;SDS011;3067;49.470;10.394;2022-07-03T11:51:42;1.43;;;0.77;;
6077;SDS011;3067;49.470;10.394;2022-07-03T11:54:10;0.80;;;0.80;;
6077;SDS011;3067;49.470;10.394;2022-07-03T11:56:37;0.70;;;0.70;;
6077;SDS011;3067;49.470;10.394;2022-07-03T11:59:05;0.77;;;0.77;;
6077;SDS011;3067;49.470;10.394;2022-07-03T12:01:34;0.80;;;0.80;;
6077;SDS011;3067;49.470;10.394;2022-07-03T12:04:02;3.70;;;0.85;;
6077;SDS011;3067;49.470;10.394;2022-07-03T12:06:33;0.77;;;0.77;;
6077;SDS011;3067;49.470;10.394;2022-07-03T12:09:00;2.38;;;0.88;;
6077;SDS011;3067;49.470;10.394;2022-07-03T12:11:28;0.77;;;0.77;;
6077;SDS011;3067;49.470;10.394;2022-07-03T12:13:55;2.57;;;0.80;;
6077;SDS011;3067;49.470;10.394;2022-07-03T12:16:30;0.70;;;0.70;;
6077;SDS011;3067;49.470;10.394;2022-07-03T12:19:02;1.85;;;0.65;;
6077;SDS011;3067;49.470;10.394;2022-07-03T12:21:35;0.70;;;0.70;;
6077;SDS011;3067;49.470;10.394;2022-07-03T12:24:08;0.63;;;0.60;;
6077;SDS011;3067;49.470;10.394;2022-07-03T12:26:36;1.05;;;0.60;;
6077;SDS011;3067;49.470;10.394;2022-07-03T12:29:05;0.70;;;0.70;;
6077;SDS011;3067;49.470;10.394;2022-07-03T12:31:32;0.60;;;0.60;;
6077;SDS011;3067;49.470;10.394;2022-07-03T12:34:01;0.68;;;0.68;;
6077;SDS011;3067;49.470;10.394;2022-07-03T12:36:29;2.63;;;0.60;;
6077;SDS011;3067;49.470;10.394;2022-07-03T12:38:57;0.60;;;0.60;;
6077;SDS011;3067;49.470;10.394;2022-07-03T12:41:25;0.80;;;0.80;;
6077;SDS011;3067;49.470;10.394;2022-07-03T12:43:53;4.20;;;0.68;;
6077;SDS011;3067;49.470;10.394;2022-07-03T12:46:21;3.20;;;0.70;;
6077;SDS011;3067;49.470;10.394;2022-07-03T12:48:49;3.30;;;0.80;;
6077;SDS011;3067;49.470;10.394;2022-07-03T12:54:01;0.73;;;0.60;;
6077;SDS011;3067;49.470;10.394;2022-07-03T12:56:28;0.68;;;0.68;;
6077;SDS011;3067;49.470;10.394;2022-07-03T12:58:55;2.67;;;0.70;;
6077;SDS011;3067;49.470;10.394;2022-07-03T13:01:40;0.70;;;0.70;;
6077;SDS011;3067;49.470;10.394;2022-07-03T13:04:07;0.70;;;0.70;;
6077;SDS011;3067;49.470;10.394;2022-07-03T13:06:39;0.70;;;0.60;;
6077;SDS011;3067;49.470;10.394;2022-07-03T13:09:08;0.65;;;0.65;;
6077;SDS011;3067;49.470;10.394;2022-07-03T13:11:36;0.98;;;0.65;;
6077;SDS011;3067;49.470;10.394;2022-07-03T13:14:05;0.60;;;0.60;;
6077;SDS011;3067;49.470;10.394;2022-07-03T13:16:36;0.60;;;0.60;;
6077;SDS011;3067;49.470;10.394;2022-07-03T13:19:04;2.67;;;0.65;;
6077;SDS011;3067;49.470;10.394;2022-07-03T13:21:32;0.88;;;0.70;;
6077;SDS011;3067;49.470;10.394;2022-07-03T13:23:59;0.60;;;0.60;;
6077;SDS011;3067;49.470;10.394;2022-07-03T13:26:28;0.70;;;0.70;;
6077;SDS011;3067;49.470;10.394;2022-07-03T13:28:55;4.22;;;0.70;;
6077;SDS011;3067;49.470;10.394;2022-07-03T13:31:23;1.45;;;0.70;;
6077;SDS011;3067;49.470;10.394;2022-07-03T13:33:50;0.80;;;0.80;;
6077;SDS011;3067;49.470;10.394;2022-07-03T13:36:17;0.70;;;0.70;;
6077;SDS011;3067;49.470;10.394;2022-07-03T13:38:45;0.70;;;0.60;;
6077;SDS011;3067;49.470;10.394;2022-07-03T13:41:12;0.80;;;0.80;;
6077;SDS011;3067;49.470;10.394;2022-07-03T13:43:41;0.68;;;0.68;;
6077;SDS011;3067;49.470;10.394;2022-07-03T13:46:08;3.15;;;0.70;;
6077;SDS011;3067;49.470;10.394;2022-07-03T13:48:35;1.25;;;0.60;;
6077;SDS011;3067;49.470;10.394;2022-07-03T13:51:04;0.70;;;0.70;;
6077;SDS011;3067;49.470;10.394;2022-07-03T13:53:32;0.70;;;0.70;;
6077;SDS011;3067;49.470;10.394;2022-07-03T13:55:59;0.60;;;0.60;;
6077;SDS011;3067;49.470;10.394;2022-07-03T13:58:27;0.70;;;0.70;;
6077;SDS011;3067;49.470;10.394;2022-07-03T14:00:56;1.20;;;0.60;;
6077;SDS011;3067;49.470;10.394;2022-07-03T14:03:24;0.60;;;0.60;;
6077;SDS011;3067;49.470;10.394;2022-07-03T14:05:51;1.25;;;0.70;;
6077;SDS011;3067;49.470;10.394;2022-07-03T14:08:18;0.70;;;0.70;;
6077;SDS011;3067;49.470;10.394;2022-07-03T14:10:46;0.60;;;0.60;;
6077;SDS011;3067;49.470;10.394;2022-07-03T14:13:13;1.15;;;0.60;;
6077;SDS011;3067;49.470;10.394;2022-07-03T14:15:41;0.60;;;0.60;;
6077;SDS011;3067;49.470;10.394;2022-07-03T14:18:09;0.60;;;0.60;;
6077;SDS011;3067;49.470;10.394;2022-07-03T14:20:37;0.57;;;0.57;;
6077;SDS011;3067;49.470;10.394;2022-07-03T14:23:04;1.25;;;0.50;;
6077;SDS011;3067;49.470;10.394;2022-07-03T14:25:31;0.50;;;0.50;;
6077;SDS011;3067;49.470;10.394;2022-07-03T14:27:59;0.60;;;0.60;;
6077;SDS011;3067;49.470;10.394;2022-07-03T14:30:44;0.77;;;0.60;;
6077;SDS011;3067;49.470;10.394;2022-07-03T14:33:30;0.77;;;0.77;;
6077;SDS011;3067;49.470;10.394;2022-07-03T14:35:57;0.98;;;0.60;;
6077;SDS011;3067;49.470;10.394;2022-07-03T14:38:25;1.70;;;0.52;;
6077;SDS011;3067;49.470;10.394;2022-07-03T14:40:52;3.05;;;0.65;;
6077;SDS011;3067;49.470;10.394;2022-07-03T14:43:19;0.73;;;0.70;;
6077;SDS011;3067;49.470;10.394;2022-07-03T14:45:47;1.58;;;0.68;;
6077;SDS011;3067;49.470;10.394;2022-07-03T14:48:14;1.80;;;0.60;;
6077;SDS011;3067;49.470;10.394;2022-07-03T14:50:43;1.52;;;0.55;;
6077;SDS011;3067;49.470;10.394;2022-07-03T14:53:10;2.25;;;0.60;;
6077;SDS011;3067;49.470;10.394;2022-07-03T14:55:38;0.70;;;0.50;;
6077;SDS011;3067;49.470;10.394;2022-07-03T14:58:09;0.60;;;0.60;;
6077;SDS011;3067;49.470;10.394;2022-07-03T15:00:39;1.15;;;0.50;;
6077;SDS011;3067;49.470;10.394;2022-07-03T15:03:09;0.50;;;0.50;;
6077;SDS011;3067;49.470;10.394;2022-07-03T15:05:40;0.70;;;0.60;;
6077;SDS011;3067;49.470;10.394;2022-07-03T15:08:12;0.50;;;0.50;;
6077;SDS011;3067;49.470;10.394;2022-07-03T15:10:42;0.63;;;0.50;;
6077;SDS011;3067;49.470;10.394;2022-07-03T15:13:09;0.50;;;0.50;;
6077;SDS011;3067;49.470;10.394;2022-07-03T15:15:37;0.50;;;0.50;;
6077;SDS011;3067;49.470;10.394;2022-07-03T15:18:05;1.13;;;0.63;;
6077;SDS011;3067;49.470;10.394;2022-07-03T15:20:34;0.60;;;0.50;;
6077;SDS011;3067;49.470;10.394;2022-07-03T15:23:02;0.50;;;0.50;;
6077;SDS011;3067;49.470;10.394;2022-07-03T15:25:31;0.90;;;0.90;;